sensor_id;sensor_type;location;lat;lon;timestamp;P1;durP1;ratioP1;P2;durP2;ratioP2
82248;SDS011;71851;49.092;18.918;2024-02-21T00:01:18;2.67;;;1.73;;
82248;SDS011;71851;49.092;18.918;2024-02-21T00:04:20;3.22;;;1.25;;
82248;SDS011;71851;49.092;18.918;2024-02-21T00:07:20;2.67;;;1.63;;
82248;SDS011;71851;49.092;18.918;2024-02-21T00:10:20;1.50;;;1.00;;
82248;SDS011;71851;49.092;18.918;2024-02-21T00:13:21;2.95;;;1.10;;
82248;SDS011;71851;49.092;18.918;2024-02-21T00:16:21;2.83;;;1.60;;
82248;SDS011;71851;49.092;18.918;2024-02-21T00:19:22;2.63;;;1.42;;
82248;SDS011;71851;49.092;18.918;2024-02-21T00:22:22;2.00;;;1.25;;
82248;SDS011;71851;49.092;18.918;2024-02-21T00:25:23;2.92;;;1.33;;
82248;SDS011;71851;49.092;18.918;2024-02-21T00:28:23;3.22;;;1.48;;
82248;SDS011;71851;49.092;18.918;2024-02-21T00:31:23;3.30;;;1.55;;
82248;SDS011;71851;49.092;18.918;2024-02-21T00:34:24;2.75;;;1.52;;
82248;SDS011;71851;49.092;18.918;2024-02-21T00:37:24;2.78;;;1.40;;
82248;SDS011;71851;49.092;18.918;2024-02-21T00:40:25;2.78;;;1.15;;
82248;SDS011;71851;49.092;18.918;2024-02-21T00:43:26;5.80;;;1.60;;
82248;SDS011;71851;49.092;18.918;2024-02-21T00:46:26;2.53;;;1.33;;
82248;SDS011;71851;49.092;18.918;2024-02-21T00:49:26;2.50;;;1.35;;
82248;SDS011;71851;49.092;18.918;2024-02-21T00:52:27;4.18;;;1.90;;
82248;SDS011;71851;49.092;18.918;2024-02-21T00:55:28;5.32;;;2.65;;
82248;SDS011;71851;49.092;18.918;2024-02-21T00:58:29;3.22;;;1.60;;
82248;SDS011;71851;49.092;18.918;2024-02-21T01:01:31;4.00;;;1.40;;
82248;SDS011;71851;49.092;18.918;2024-02-21T01:04:31;3.47;;;1.40;;
82248;SDS011;71851;49.092;18.918;2024-02-21T01:07:31;5.28;;;2.10;;
82248;SDS011;71851;49.092;18.918;2024-02-21T01:10:32;4.15;;;1.63;;
82248;SDS011;71851;49.092;18.918;2024-02-21T01:13:32;4.18;;;1.80;;
82248;SDS011;71851;49.092;18.918;2024-02-21T01:16:33;7.35;;;2.08;;
82248;SDS011;71851;49.092;18.918;2024-02-21T01:19:33;3.58;;;1.83;;
82248;SDS011;71851;49.092;18.918;2024-02-21T01:22:33;3.75;;;1.90;;
82248;SDS011;71851;49.092;18.918;2024-02-21T01:25:34;3.38;;;1.38;;
82248;SDS011;71851;49.092;18.918;2024-02-21T01:28:34;4.38;;;2.05;;
82248;SDS011;71851;49.092;18.918;2024-02-21T01:31:38;2.67;;;1.42;;
82248;SDS011;71851;49.092;18.918;2024-02-21T01:34:39;4.45;;;2.05;;
82248;SDS011;71851;49.092;18.918;2024-02-21T01:37:39;3.17;;;1.83;;
82248;SDS011;71851;49.092;18.918;2024-02-21T01:40:40;3.70;;;1.77;;
82248;SDS011;71851;49.092;18.918;2024-02-21T01:43:41;4.10;;;1.65;;
82248;SDS011;71851;49.092;18.918;2024-02-21T01:46:41;4.80;;;1.67;;
82248;SDS011;71851;49.092;18.918;2024-02-21T01:49:43;3.95;;;2.08;;
82248;SDS011;71851;49.092;18.918;2024-02-21T01:52:43;3.45;;;1.52;;
82248;SDS011;71851;49.092;18.918;2024-02-21T01:55:47;5.95;;;2.05;;
82248;SDS011;71851;49.092;18.918;2024-02-21T01:58:48;3.58;;;1.60;;
82248;SDS011;71851;49.092;18.918;2024-02-21T02:01:50;3.88;;;2.08;;
82248;SDS011;71851;49.092;18.918;2024-02-21T02:04:52;3.05;;;1.67;;
82248;SDS011;71851;49.092;18.918;2024-02-21T02:07:53;5.80;;;1.95;;
82248;SDS011;71851;49.092;18.918;2024-02-21T02:10:53;4.47;;;2.15;;
82248;SDS011;71851;49.092;18.918;2024-02-21T02:13:54;3.83;;;2.35;;
82248;SDS011;71851;49.092;18.918;2024-02-21T02:16:54;4.05;;;1.90;;
82248;SDS011;71851;49.092;18.918;2024-02-21T02:19:55;6.38;;;1.73;;
82248;SDS011;71851;49.092;18.918;2024-02-21T02:22:55;3.63;;;1.63;;
82248;SDS011;71851;49.092;18.918;2024-02-21T02:25:56;4.70;;;2.70;;
82248;SDS011;71851;49.092;18.918;2024-02-21T02:28:56;5.75;;;2.33;;
82248;SDS011;71851;49.092;18.918;2024-02-21T02:31:57;5.57;;;1.88;;
82248;SDS011;71851;49.092;18.918;2024-02-21T02:34:58;4.75;;;1.90;;
82248;SDS011;71851;49.092;18.918;2024-02-21T02:37:58;3.90;;;2.00;;
82248;SDS011;71851;49.092;18.918;2024-02-21T02:40:59;5.45;;;1.90;;
82248;SDS011;71851;49.092;18.918;2024-02-21T02:43:59;3.47;;;1.30;;
82248;SDS011;71851;49.092;18.918;2024-02-21T02:47:00;5.13;;;2.08;;
82248;SDS011;71851;49.092;18.918;2024-02-21T02:50:00;3.53;;;1.75;;
82248;SDS011;71851;49.092;18.918;2024-02-21T02:53:01;5.05;;;1.33;;
82248;SDS011;71851;49.092;18.918;2024-02-21T02:56:02;6.15;;;1.92;;
82248;SDS011;71851;49.092;18.918;2024-02-21T02:59:02;5.25;;;1.98;;
82248;SDS011;71851;49.092;18.918;2024-02-21T03:02:03;4.82;;;1.83;;
82248;SDS011;71851;49.092;18.918;2024-02-21T03:05:10;3.50;;;1.88;;
82248;SDS011;71851;49.092;18.918;2024-02-21T03:08:16;5.22;;;2.22;;
82248;SDS011;71851;49.092;18.918;2024-02-21T03:11:17;3.85;;;1.70;;
82248;SDS011;71851;49.092;18.918;2024-02-21T03:14:17;2.90;;;2.08;;
82248;SDS011;71851;49.092;18.918;2024-02-21T03:17:17;7.05;;;2.60;;
82248;SDS011;71851;49.092;18.918;2024-02-21T03:20:18;5.90;;;2.42;;
82248;SDS011;71851;49.092;18.918;2024-02-21T03:23:19;3.88;;;2.63;;
82248;SDS011;71851;49.092;18.918;2024-02-21T03:26:20;5.68;;;2.95;;
82248;SDS011;71851;49.092;18.918;2024-02-21T03:29:21;5.90;;;3.03;;
82248;SDS011;71851;49.092;18.918;2024-02-21T03:32:21;6.22;;;2.65;;
82248;SDS011;71851;49.092;18.918;2024-02-21T03:35:22;4.68;;;2.17;;
82248;SDS011;71851;49.092;18.918;2024-02-21T03:38:26;5.50;;;2.20;;
82248;SDS011;71851;49.092;18.918;2024-02-21T03:41:26;3.20;;;1.90;;
82248;SDS011;71851;49.092;18.918;2024-02-21T03:44:28;2.55;;;1.80;;
82248;SDS011;71851;49.092;18.918;2024-02-21T03:47:30;3.65;;;2.13;;
82248;SDS011;71851;49.092;18.918;2024-02-21T03:50:30;3.88;;;2.35;;
82248;SDS011;71851;49.092;18.918;2024-02-21T03:53:30;5.72;;;2.35;;
82248;SDS011;71851;49.092;18.918;2024-02-21T03:56:32;6.60;;;3.90;;
82248;SDS011;71851;49.092;18.918;2024-02-21T03:59:37;8.32;;;4.55;;
82248;SDS011;71851;49.092;18.918;2024-02-21T04:02:41;5.68;;;2.88;;
82248;SDS011;71851;49.092;18.918;2024-02-21T04:05:41;4.38;;;3.10;;
82248;SDS011;71851;49.092;18.918;2024-02-21T04:08:41;5.32;;;2.45;;
82248;SDS011;71851;49.092;18.918;2024-02-21T04:11:42;8.50;;;3.70;;
82248;SDS011;71851;49.092;18.918;2024-02-21T04:14:42;6.10;;;3.08;;
82248;SDS011;71851;49.092;18.918;2024-02-21T04:17:43;6.97;;;3.55;;
82248;SDS011;71851;49.092;18.918;2024-02-21T04:20:46;5.90;;;3.55;;
82248;SDS011;71851;49.092;18.918;2024-02-21T04:23:47;5.15;;;3.05;;
82248;SDS011;71851;49.092;18.918;2024-02-21T04:26:49;7.53;;;4.53;;
82248;SDS011;71851;49.092;18.918;2024-02-21T04:29:49;7.00;;;3.40;;
82248;SDS011;71851;49.092;18.918;2024-02-21T04:32:50;5.20;;;3.03;;
82248;SDS011;71851;49.092;18.918;2024-02-21T04:35:51;6.00;;;3.38;;
82248;SDS011;71851;49.092;18.918;2024-02-21T04:38:56;6.63;;;3.45;;
82248;SDS011;71851;49.092;18.918;2024-02-21T04:41:57;6.43;;;3.65;;
82248;SDS011;71851;49.092;18.918;2024-02-21T04:44:59;7.55;;;3.53;;
82248;SDS011;71851;49.092;18.918;2024-02-21T04:47:59;6.72;;;3.40;;
82248;SDS011;71851;49.092;18.918;2024-02-21T04:50:59;5.65;;;3.53;;
82248;SDS011;71851;49.092;18.918;2024-02-21T04:54:00;7.32;;;4.93;;
82248;SDS011;71851;49.092;18.918;2024-02-21T04:57:00;6.57;;;3.90;;
82248;SDS011;71851;49.092;18.918;2024-02-21T05:00:01;6.18;;;3.38;;
82248;SDS011;71851;49.092;18.918;2024-02-21T05:03:02;5.68;;;3.10;;
82248;SDS011;71851;49.092;18.918;2024-02-21T05:06:02;8.55;;;3.97;;
82248;SDS011;71851;49.092;18.918;2024-02-21T05:09:03;7.85;;;4.32;;
82248;SDS011;71851;49.092;18.918;2024-02-21T05:12:03;6.80;;;3.95;;
82248;SDS011;71851;49.092;18.918;2024-02-21T05:15:04;9.13;;;5.47;;
82248;SDS011;71851;49.092;18.918;2024-02-21T05:18:05;10.43;;;6.15;;
82248;SDS011;71851;49.092;18.918;2024-02-21T05:21:05;7.57;;;5.10;;
82248;SDS011;71851;49.092;18.918;2024-02-21T05:24:06;9.32;;;5.47;;
82248;SDS011;71851;49.092;18.918;2024-02-21T05:27:06;8.60;;;6.95;;
82248;SDS011;71851;49.092;18.918;2024-02-21T05:30:07;7.90;;;5.15;;
82248;SDS011;71851;49.092;18.918;2024-02-21T05:33:07;8.60;;;3.47;;
82248;SDS011;71851;49.092;18.918;2024-02-21T05:36:08;5.90;;;5.00;;
82248;SDS011;71851;49.092;18.918;2024-02-21T05:39:08;7.63;;;3.05;;
82248;SDS011;71851;49.092;18.918;2024-02-21T05:42:09;4.85;;;2.65;;
82248;SDS011;71851;49.092;18.918;2024-02-21T05:45:09;3.53;;;2.67;;
82248;SDS011;71851;49.092;18.918;2024-02-21T05:48:09;4.47;;;3.03;;
82248;SDS011;71851;49.092;18.918;2024-02-21T05:51:10;7.32;;;4.53;;
82248;SDS011;71851;49.092;18.918;2024-02-21T05:54:10;8.38;;;5.15;;
82248;SDS011;71851;49.092;18.918;2024-02-21T05:57:11;10.35;;;5.50;;
82248;SDS011;71851;49.092;18.918;2024-02-21T06:00:11;8.05;;;5.55;;
82248;SDS011;71851;49.092;18.918;2024-02-21T06:03:15;9.75;;;4.38;;
82248;SDS011;71851;49.092;18.918;2024-02-21T06:06:15;9.07;;;5.47;;
82248;SDS011;71851;49.092;18.918;2024-02-21T06:09:16;8.13;;;6.00;;
82248;SDS011;71851;49.092;18.918;2024-02-21T06:12:16;9.20;;;6.10;;
82248;SDS011;71851;49.092;18.918;2024-02-21T06:15:17;7.80;;;4.88;;
82248;SDS011;71851;49.092;18.918;2024-02-21T06:18:18;6.53;;;3.38;;
82248;SDS011;71851;49.092;18.918;2024-02-21T06:21:20;6.32;;;3.00;;
82248;SDS011;71851;49.092;18.918;2024-02-21T06:24:20;4.75;;;3.17;;
82248;SDS011;71851;49.092;18.918;2024-02-21T06:27:23;5.93;;;3.83;;
82248;SDS011;71851;49.092;18.918;2024-02-21T06:30:24;7.07;;;3.42;;
82248;SDS011;71851;49.092;18.918;2024-02-21T06:33:25;9.18;;;4.47;;
82248;SDS011;71851;49.092;18.918;2024-02-21T06:36:25;9.23;;;4.13;;
82248;SDS011;71851;49.092;18.918;2024-02-21T06:39:25;9.80;;;4.55;;
82248;SDS011;71851;49.092;18.918;2024-02-21T06:42:26;10.07;;;5.38;;
82248;SDS011;71851;49.092;18.918;2024-02-21T06:45:26;7.97;;;3.88;;
82248;SDS011;71851;49.092;18.918;2024-02-21T06:48:27;8.45;;;4.50;;
82248;SDS011;71851;49.092;18.918;2024-02-21T06:51:27;6.85;;;3.95;;
82248;SDS011;71851;49.092;18.918;2024-02-21T06:54:28;8.52;;;4.32;;
82248;SDS011;71851;49.092;18.918;2024-02-21T06:57:28;9.90;;;4.95;;
82248;SDS011;71851;49.092;18.918;2024-02-21T07:00:29;11.05;;;5.15;;
82248;SDS011;71851;49.092;18.918;2024-02-21T07:03:30;8.75;;;4.55;;
82248;SDS011;71851;49.092;18.918;2024-02-21T07:06:30;8.52;;;4.20;;
82248;SDS011;71851;49.092;18.918;2024-02-21T07:09:32;11.95;;;4.82;;
82248;SDS011;71851;49.092;18.918;2024-02-21T07:12:32;11.90;;;4.38;;
82248;SDS011;71851;49.092;18.918;2024-02-21T07:15:33;11.73;;;4.40;;
82248;SDS011;71851;49.092;18.918;2024-02-21T07:18:34;9.70;;;4.32;;
82248;SDS011;71851;49.092;18.918;2024-02-21T07:21:34;10.32;;;5.13;;
82248;SDS011;71851;49.092;18.918;2024-02-21T07:24:37;10.20;;;5.30;;
82248;SDS011;71851;49.092;18.918;2024-02-21T07:27:38;10.45;;;5.47;;
82248;SDS011;71851;49.092;18.918;2024-02-21T07:30:38;9.20;;;5.50;;
82248;SDS011;71851;49.092;18.918;2024-02-21T07:33:39;12.93;;;6.78;;
82248;SDS011;71851;49.092;18.918;2024-02-21T07:36:39;8.48;;;4.85;;
82248;SDS011;71851;49.092;18.918;2024-02-21T07:39:40;8.88;;;4.65;;
82248;SDS011;71851;49.092;18.918;2024-02-21T07:42:41;9.07;;;5.13;;
82248;SDS011;71851;49.092;18.918;2024-02-21T07:45:42;8.98;;;4.40;;
82248;SDS011;71851;49.092;18.918;2024-02-21T07:48:42;7.65;;;4.75;;
82248;SDS011;71851;49.092;18.918;2024-02-21T07:51:42;9.57;;;4.82;;
82248;SDS011;71851;49.092;18.918;2024-02-21T07:54:43;8.05;;;4.57;;
82248;SDS011;71851;49.092;18.918;2024-02-21T07:57:43;10.80;;;4.32;;
82248;SDS011;71851;49.092;18.918;2024-02-21T08:00:44;10.55;;;4.85;;
82248;SDS011;71851;49.092;18.918;2024-02-21T08:03:44;9.00;;;5.18;;
82248;SDS011;71851;49.092;18.918;2024-02-21T08:06:45;8.15;;;4.70;;
82248;SDS011;71851;49.092;18.918;2024-02-21T08:09:45;7.78;;;4.95;;
82248;SDS011;71851;49.092;18.918;2024-02-21T08:12:45;8.68;;;6.35;;
82248;SDS011;71851;49.092;18.918;2024-02-21T08:15:46;7.72;;;4.50;;
82248;SDS011;71851;49.092;18.918;2024-02-21T08:18:46;6.90;;;4.60;;
82248;SDS011;71851;49.092;18.918;2024-02-21T08:21:47;6.78;;;4.15;;
82248;SDS011;71851;49.092;18.918;2024-02-21T08:24:47;7.82;;;4.97;;
82248;SDS011;71851;49.092;18.918;2024-02-21T08:27:47;8.77;;;4.22;;
82248;SDS011;71851;49.092;18.918;2024-02-21T08:30:48;8.27;;;4.50;;
82248;SDS011;71851;49.092;18.918;2024-02-21T08:33:48;9.05;;;4.57;;
82248;SDS011;71851;49.092;18.918;2024-02-21T08:36:49;9.57;;;4.63;;
82248;SDS011;71851;49.092;18.918;2024-02-21T08:39:50;6.18;;;3.92;;
82248;SDS011;71851;49.092;18.918;2024-02-21T08:42:50;4.90;;;3.83;;
82248;SDS011;71851;49.092;18.918;2024-02-21T08:45:50;7.25;;;4.65;;
82248;SDS011;71851;49.092;18.918;2024-02-21T08:48:51;11.05;;;5.60;;
82248;SDS011;71851;49.092;18.918;2024-02-21T08:51:51;8.55;;;5.00;;
82248;SDS011;71851;49.092;18.918;2024-02-21T08:54:51;12.25;;;5.38;;
82248;SDS011;71851;49.092;18.918;2024-02-21T08:57:53;9.00;;;5.65;;
82248;SDS011;71851;49.092;18.918;2024-02-21T09:00:54;8.40;;;5.18;;
82248;SDS011;71851;49.092;18.918;2024-02-21T09:03:54;8.80;;;5.32;;
82248;SDS011;71851;49.092;18.918;2024-02-21T09:06:56;8.75;;;4.90;;
82248;SDS011;71851;49.092;18.918;2024-02-21T09:12:59;9.68;;;5.28;;
82248;SDS011;71851;49.092;18.918;2024-02-21T09:15:59;8.32;;;5.72;;
82248;SDS011;71851;49.092;18.918;2024-02-21T09:19:00;8.40;;;4.90;;
82248;SDS011;71851;49.092;18.918;2024-02-21T09:22:03;7.28;;;4.50;;
82248;SDS011;71851;49.092;18.918;2024-02-21T09:25:04;7.10;;;4.90;;
82248;SDS011;71851;49.092;18.918;2024-02-21T09:28:05;8.57;;;4.72;;
82248;SDS011;71851;49.092;18.918;2024-02-21T09:31:09;11.18;;;5.88;;
82248;SDS011;71851;49.092;18.918;2024-02-21T09:34:10;9.20;;;6.13;;
82248;SDS011;71851;49.092;18.918;2024-02-21T09:37:11;8.30;;;5.00;;
82248;SDS011;71851;49.092;18.918;2024-02-21T09:40:11;8.80;;;5.55;;
82248;SDS011;71851;49.092;18.918;2024-02-21T09:43:18;8.82;;;5.05;;
82248;SDS011;71851;49.092;18.918;2024-02-21T09:46:18;8.18;;;5.40;;
82248;SDS011;71851;49.092;18.918;2024-02-21T09:52:37;9.43;;;5.22;;
82248;SDS011;71851;49.092;18.918;2024-02-21T09:55:39;9.60;;;6.68;;
82248;SDS011;71851;49.092;18.918;2024-02-21T09:58:41;9.48;;;5.20;;
82248;SDS011;71851;49.092;18.918;2024-02-21T10:01:45;10.00;;;5.85;;
82248;SDS011;71851;49.092;18.918;2024-02-21T10:04:46;9.27;;;5.45;;
82248;SDS011;71851;49.092;18.918;2024-02-21T10:07:48;8.77;;;4.53;;
82248;SDS011;71851;49.092;18.918;2024-02-21T10:10:49;8.60;;;4.85;;
82248;SDS011;71851;49.092;18.918;2024-02-21T10:13:49;6.80;;;4.68;;
82248;SDS011;71851;49.092;18.918;2024-02-21T10:16:56;8.13;;;4.95;;
82248;SDS011;71851;49.092;18.918;2024-02-21T10:20:07;10.55;;;4.68;;
82248;SDS011;71851;49.092;18.918;2024-02-21T10:23:11;7.13;;;4.40;;
82248;SDS011;71851;49.092;18.918;2024-02-21T10:26:12;7.32;;;4.38;;
82248;SDS011;71851;49.092;18.918;2024-02-21T10:29:13;8.02;;;4.72;;
82248;SDS011;71851;49.092;18.918;2024-02-21T10:32:14;6.68;;;4.38;;
82248;SDS011;71851;49.092;18.918;2024-02-21T10:35:24;8.95;;;5.03;;
82248;SDS011;71851;49.092;18.918;2024-02-21T10:38:26;10.77;;;6.13;;
82248;SDS011;71851;49.092;18.918;2024-02-21T10:41:28;7.57;;;4.55;;
82248;SDS011;71851;49.092;18.918;2024-02-21T10:44:36;7.13;;;4.93;;
82248;SDS011;71851;49.092;18.918;2024-02-21T10:47:37;9.75;;;6.20;;
82248;SDS011;71851;49.092;18.918;2024-02-21T10:56:52;9.13;;;4.75;;
82248;SDS011;71851;49.092;18.918;2024-02-21T10:59:56;7.72;;;5.40;;
82248;SDS011;71851;49.092;18.918;2024-02-21T11:02:59;7.97;;;4.40;;
82248;SDS011;71851;49.092;18.918;2024-02-21T11:06:00;6.95;;;4.65;;
82248;SDS011;71851;49.092;18.918;2024-02-21T11:09:05;8.30;;;4.72;;
82248;SDS011;71851;49.092;18.918;2024-02-21T11:12:07;10.65;;;5.78;;
82248;SDS011;71851;49.092;18.918;2024-02-21T11:15:08;8.38;;;5.07;;
82248;SDS011;71851;49.092;18.918;2024-02-21T11:18:09;9.10;;;6.35;;
82248;SDS011;71851;49.092;18.918;2024-02-21T11:21:10;8.32;;;5.47;;
82248;SDS011;71851;49.092;18.918;2024-02-21T11:24:10;10.93;;;6.72;;
82248;SDS011;71851;49.092;18.918;2024-02-21T11:27:15;10.98;;;5.32;;
82248;SDS011;71851;49.092;18.918;2024-02-21T11:30:16;11.00;;;5.53;;
82248;SDS011;71851;49.092;18.918;2024-02-21T11:33:22;9.57;;;5.30;;
82248;SDS011;71851;49.092;18.918;2024-02-21T11:36:24;12.18;;;6.05;;
82248;SDS011;71851;49.092;18.918;2024-02-21T11:39:25;9.18;;;5.57;;
82248;SDS011;71851;49.092;18.918;2024-02-21T11:42:27;12.23;;;6.00;;
82248;SDS011;71851;49.092;18.918;2024-02-21T11:45:28;11.73;;;7.25;;
82248;SDS011;71851;49.092;18.918;2024-02-21T11:48:29;12.70;;;5.22;;
82248;SDS011;71851;49.092;18.918;2024-02-21T11:51:30;11.70;;;6.00;;
82248;SDS011;71851;49.092;18.918;2024-02-21T11:54:31;9.65;;;7.32;;
82248;SDS011;71851;49.092;18.918;2024-02-21T11:57:31;9.05;;;5.43;;
82248;SDS011;71851;49.092;18.918;2024-02-21T12:00:32;12.25;;;5.75;;
82248;SDS011;71851;49.092;18.918;2024-02-21T12:03:32;11.23;;;6.25;;
82248;SDS011;71851;49.092;18.918;2024-02-21T12:06:35;12.18;;;5.70;;
82248;SDS011;71851;49.092;18.918;2024-02-21T12:09:36;10.55;;;5.65;;
82248;SDS011;71851;49.092;18.918;2024-02-21T12:12:36;13.10;;;6.50;;
82248;SDS011;71851;49.092;18.918;2024-02-21T12:15:41;12.98;;;7.88;;
82248;SDS011;71851;49.092;18.918;2024-02-21T12:18:41;16.35;;;6.85;;
82248;SDS011;71851;49.092;18.918;2024-02-21T12:21:42;13.90;;;6.53;;
82248;SDS011;71851;49.092;18.918;2024-02-21T12:24:42;14.68;;;6.72;;
82248;SDS011;71851;49.092;18.918;2024-02-21T12:27:47;13.38;;;6.15;;
82248;SDS011;71851;49.092;18.918;2024-02-21T12:30:49;12.55;;;7.03;;
82248;SDS011;71851;49.092;18.918;2024-02-21T12:33:50;13.90;;;6.72;;
82248;SDS011;71851;49.092;18.918;2024-02-21T12:36:52;10.85;;;6.65;;
82248;SDS011;71851;49.092;18.918;2024-02-21T12:39:52;13.13;;;7.95;;
82248;SDS011;71851;49.092;18.918;2024-02-21T12:42:53;12.32;;;6.85;;
82248;SDS011;71851;49.092;18.918;2024-02-21T12:45:53;13.48;;;7.32;;
82248;SDS011;71851;49.092;18.918;2024-02-21T12:48:54;12.68;;;8.30;;
82248;SDS011;71851;49.092;18.918;2024-02-21T12:51:55;13.00;;;6.47;;
82248;SDS011;71851;49.092;18.918;2024-02-21T12:54:55;9.65;;;6.28;;
82248;SDS011;71851;49.092;18.918;2024-02-21T12:58:00;15.10;;;7.18;;
82248;SDS011;71851;49.092;18.918;2024-02-21T13:01:05;12.45;;;5.72;;
82248;SDS011;71851;49.092;18.918;2024-02-21T13:04:06;14.15;;;6.50;;
82248;SDS011;71851;49.092;18.918;2024-02-21T13:07:06;12.05;;;6.97;;
82248;SDS011;71851;49.092;18.918;2024-02-21T13:10:07;16.73;;;6.30;;
82248;SDS011;71851;49.092;18.918;2024-02-21T13:13:08;12.32;;;6.18;;
82248;SDS011;71851;49.092;18.918;2024-02-21T13:16:09;14.55;;;6.72;;
82248;SDS011;71851;49.092;18.918;2024-02-21T13:19:10;9.40;;;6.40;;
82248;SDS011;71851;49.092;18.918;2024-02-21T13:22:11;13.38;;;8.25;;
82248;SDS011;71851;49.092;18.918;2024-02-21T13:25:11;14.20;;;7.28;;
82248;SDS011;71851;49.092;18.918;2024-02-21T13:28:15;15.27;;;6.70;;
82248;SDS011;71851;49.092;18.918;2024-02-21T13:31:16;14.82;;;5.70;;
82248;SDS011;71851;49.092;18.918;2024-02-21T13:34:16;14.02;;;6.88;;
82248;SDS011;71851;49.092;18.918;2024-02-21T13:37:17;13.05;;;6.53;;
82248;SDS011;71851;49.092;18.918;2024-02-21T13:40:18;11.55;;;6.72;;
82248;SDS011;71851;49.092;18.918;2024-02-21T13:43:18;21.38;;;9.52;;
82248;SDS011;71851;49.092;18.918;2024-02-21T13:46:19;20.52;;;9.70;;
82248;SDS011;71851;49.092;18.918;2024-02-21T13:49:20;17.25;;;10.38;;
82248;SDS011;71851;49.092;18.918;2024-02-21T13:52:22;23.33;;;9.98;;
82248;SDS011;71851;49.092;18.918;2024-02-21T13:55:26;15.73;;;7.22;;
82248;SDS011;71851;49.092;18.918;2024-02-21T13:58:26;12.55;;;6.30;;
82248;SDS011;71851;49.092;18.918;2024-02-21T14:01:27;13.43;;;7.13;;
82248;SDS011;71851;49.092;18.918;2024-02-21T14:04:32;11.30;;;6.07;;
82248;SDS011;71851;49.092;18.918;2024-02-21T14:07:32;10.05;;;5.60;;
82248;SDS011;71851;49.092;18.918;2024-02-21T14:10:35;11.13;;;4.70;;
82248;SDS011;71851;49.092;18.918;2024-02-21T14:13:37;6.75;;;4.22;;
82248;SDS011;71851;49.092;18.918;2024-02-21T14:16:37;8.48;;;3.50;;
82248;SDS011;71851;49.092;18.918;2024-02-21T14:19:38;8.90;;;4.05;;
82248;SDS011;71851;49.092;18.918;2024-02-21T14:22:39;9.50;;;3.92;;
82248;SDS011;71851;49.092;18.918;2024-02-21T14:25:39;9.18;;;3.03;;
82248;SDS011;71851;49.092;18.918;2024-02-21T14:28:41;6.53;;;3.40;;
82248;SDS011;71851;49.092;18.918;2024-02-21T14:31:42;7.15;;;3.35;;
82248;SDS011;71851;49.092;18.918;2024-02-21T14:34:42;9.48;;;4.82;;
82248;SDS011;71851;49.092;18.918;2024-02-21T14:37:43;10.80;;;5.25;;
82248;SDS011;71851;49.092;18.918;2024-02-21T14:40:44;7.60;;;4.22;;
82248;SDS011;71851;49.092;18.918;2024-02-21T14:43:44;8.40;;;5.03;;
82248;SDS011;71851;49.092;18.918;2024-02-21T14:46:44;12.02;;;5.25;;
82248;SDS011;71851;49.092;18.918;2024-02-21T14:49:45;14.00;;;6.95;;
82248;SDS011;71851;49.092;18.918;2024-02-21T14:52:45;17.35;;;9.90;;
82248;SDS011;71851;49.092;18.918;2024-02-21T14:55:45;19.15;;;10.27;;
82248;SDS011;71851;49.092;18.918;2024-02-21T14:58:46;21.27;;;9.20;;
82248;SDS011;71851;49.092;18.918;2024-02-21T15:01:47;15.70;;;9.27;;
82248;SDS011;71851;49.092;18.918;2024-02-21T15:04:47;16.02;;;9.10;;
82248;SDS011;71851;49.092;18.918;2024-02-21T15:07:48;11.90;;;7.00;;
82248;SDS011;71851;49.092;18.918;2024-02-21T15:10:48;13.55;;;7.97;;
82248;SDS011;71851;49.092;18.918;2024-02-21T15:13:50;12.05;;;8.25;;
82248;SDS011;71851;49.092;18.918;2024-02-21T15:16:50;14.50;;;8.02;;
82248;SDS011;71851;49.092;18.918;2024-02-21T15:19:51;14.50;;;8.57;;
82248;SDS011;71851;49.092;18.918;2024-02-21T15:22:54;14.52;;;8.50;;
82248;SDS011;71851;49.092;18.918;2024-02-21T15:25:55;11.80;;;8.13;;
82248;SDS011;71851;49.092;18.918;2024-02-21T15:28:56;15.52;;;8.60;;
82248;SDS011;71851;49.092;18.918;2024-02-21T15:31:57;18.58;;;10.35;;
82248;SDS011;71851;49.092;18.918;2024-02-21T15:34:58;19.45;;;11.00;;
82248;SDS011;71851;49.092;18.918;2024-02-21T15:37:59;15.23;;;9.10;;
82248;SDS011;71851;49.092;18.918;2024-02-21T15:40:59;19.02;;;9.77;;
82248;SDS011;71851;49.092;18.918;2024-02-21T15:44:00;14.38;;;8.82;;
82248;SDS011;71851;49.092;18.918;2024-02-21T15:47:00;11.18;;;6.97;;
82248;SDS011;71851;49.092;18.918;2024-02-21T15:50:01;14.00;;;7.80;;
82248;SDS011;71851;49.092;18.918;2024-02-21T15:53:02;14.10;;;9.15;;
82248;SDS011;71851;49.092;18.918;2024-02-21T15:56:04;16.27;;;10.77;;
82248;SDS011;71851;49.092;18.918;2024-02-21T15:59:04;17.60;;;10.55;;
82248;SDS011;71851;49.092;18.918;2024-02-21T16:02:05;21.17;;;11.80;;
82248;SDS011;71851;49.092;18.918;2024-02-21T16:05:06;18.58;;;10.13;;
82248;SDS011;71851;49.092;18.918;2024-02-21T16:08:09;23.00;;;11.88;;
82248;SDS011;71851;49.092;18.918;2024-02-21T16:11:15;15.52;;;8.70;;
82248;SDS011;71851;49.092;18.918;2024-02-21T16:14:16;14.68;;;9.98;;
82248;SDS011;71851;49.092;18.918;2024-02-21T16:17:17;13.50;;;9.48;;
82248;SDS011;71851;49.092;18.918;2024-02-21T16:20:17;14.55;;;7.78;;
82248;SDS011;71851;49.092;18.918;2024-02-21T16:23:18;14.90;;;8.80;;
82248;SDS011;71851;49.092;18.918;2024-02-21T16:26:18;15.90;;;8.02;;
82248;SDS011;71851;49.092;18.918;2024-02-21T16:29:19;26.38;;;15.25;;
82248;SDS011;71851;49.092;18.918;2024-02-21T16:32:19;24.98;;;13.93;;
82248;SDS011;71851;49.092;18.918;2024-02-21T16:35:19;23.92;;;14.30;;
82248;SDS011;71851;49.092;18.918;2024-02-21T16:38:20;23.27;;;14.77;;
82248;SDS011;71851;49.092;18.918;2024-02-21T16:41:21;20.35;;;10.00;;
82248;SDS011;71851;49.092;18.918;2024-02-21T16:44:21;21.30;;;12.60;;
82248;SDS011;71851;49.092;18.918;2024-02-21T16:47:22;23.83;;;15.88;;
82248;SDS011;71851;49.092;18.918;2024-02-21T16:50:25;31.17;;;18.33;;
82248;SDS011;71851;49.092;18.918;2024-02-21T16:53:25;31.42;;;18.60;;
82248;SDS011;71851;49.092;18.918;2024-02-21T16:56:26;25.35;;;15.68;;
82248;SDS011;71851;49.092;18.918;2024-02-21T16:59:26;26.50;;;15.02;;
82248;SDS011;71851;49.092;18.918;2024-02-21T17:02:26;15.98;;;10.20;;
82248;SDS011;71851;49.092;18.918;2024-02-21T17:05:27;15.63;;;8.18;;
82248;SDS011;71851;49.092;18.918;2024-02-21T17:08:30;18.25;;;10.70;;
82248;SDS011;71851;49.092;18.918;2024-02-21T17:11:30;17.10;;;9.20;;
82248;SDS011;71851;49.092;18.918;2024-02-21T17:14:31;17.13;;;9.43;;
82248;SDS011;71851;49.092;18.918;2024-02-21T17:17:33;16.00;;;8.38;;
82248;SDS011;71851;49.092;18.918;2024-02-21T17:20:35;15.43;;;8.30;;
82248;SDS011;71851;49.092;18.918;2024-02-21T17:23:35;14.82;;;8.73;;
82248;SDS011;71851;49.092;18.918;2024-02-21T17:26:35;14.27;;;9.18;;
82248;SDS011;71851;49.092;18.918;2024-02-21T17:29:36;13.88;;;8.23;;
82248;SDS011;71851;49.092;18.918;2024-02-21T17:32:36;11.35;;;7.55;;
82248;SDS011;71851;49.092;18.918;2024-02-21T17:35:37;14.80;;;9.10;;
82248;SDS011;71851;49.092;18.918;2024-02-21T17:38:37;20.20;;;10.98;;
82248;SDS011;71851;49.092;18.918;2024-02-21T17:41:37;20.33;;;12.20;;
82248;SDS011;71851;49.092;18.918;2024-02-21T17:44:38;30.00;;;17.50;;
82248;SDS011;71851;49.092;18.918;2024-02-21T17:47:42;46.47;;;27.85;;
82248;SDS011;71851;49.092;18.918;2024-02-21T17:50:42;58.83;;;37.97;;
82248;SDS011;71851;49.092;18.918;2024-02-21T17:53:42;21.35;;;11.20;;
82248;SDS011;71851;49.092;18.918;2024-02-21T17:56:44;25.75;;;13.77;;
82248;SDS011;71851;49.092;18.918;2024-02-21T17:59:44;47.25;;;25.33;;